createdAt,value
2022-10-23T00:01:13.829Z,22.34
2022-10-23T00:03:41.333Z,22.31
2022-10-23T00:06:08.798Z,22.25
2022-10-23T00:08:35.701Z,22.28
2022-10-23T00:11:09.275Z,22.30
2022-10-23T00:13:36.743Z,22.25
2022-10-23T00:16:04.515Z,22.21
2022-10-23T00:18:31.387Z,22.20
2022-10-23T00:20:58.419Z,22.21
2022-10-23T00:23:25.464Z,22.17
2022-10-23T00:25:52.286Z,22.18
2022-10-23T00:28:20.575Z,22.15
2022-10-23T00:30:47.746Z,22.10
2022-10-23T00:33:16.255Z,22.05
2022-10-23T00:35:43.473Z,22.07
2022-10-23T00:38:12.028Z,22.05
2022-10-23T00:40:39.651Z,22.03
2022-10-23T00:43:11.041Z,22.01
2022-10-23T00:45:39.767Z,22.00
2022-10-23T00:48:06.606Z,22.01
2022-10-23T00:50:33.905Z,22.00
2022-10-23T00:53:04.548Z,22.03
2022-10-23T00:55:33.781Z,22.04
2022-10-23T01:00:55.700Z,22.04
2022-10-23T01:03:27.507Z,22.00
2022-10-23T01:06:03.185Z,22.00
2022-10-23T01:08:42.979Z,22.00
2022-10-23T01:11:20.370Z,22.00
2022-10-23T01:13:59.459Z,22.01
2022-10-23T01:16:39.126Z,21.96
2022-10-23T01:19:20.352Z,21.96
2022-10-23T01:22:05.650Z,21.96
2022-10-23T01:24:47.874Z,21.94
2022-10-23T01:27:23.938Z,21.93
2022-10-23T01:30:05.736Z,21.93
2022-10-23T01:32:47.918Z,21.90
2022-10-23T01:35:21.985Z,21.86
2022-10-23T01:38:06.277Z,21.86
2022-10-23T01:40:39.853Z,21.84
2022-10-23T01:43:19.973Z,21.89
2022-10-23T01:45:52.956Z,21.84
2022-10-23T01:48:28.174Z,21.83
2022-10-23T01:51:01.301Z,21.83
2022-10-23T01:53:36.627Z,21.83
2022-10-23T01:56:12.837Z,21.77
2022-10-23T01:58:47.117Z,21.76
2022-10-23T02:01:18.685Z,21.69
2022-10-23T02:03:51.582Z,21.63
2022-10-23T02:06:18.914Z,21.52
2022-10-23T02:08:46.570Z,21.52
2022-10-23T02:11:18.063Z,21.54
2022-10-23T02:13:58.154Z,21.50
2022-10-23T02:16:38.610Z,21.53
2022-10-23T02:19:15.734Z,21.52
2022-10-23T02:21:54.358Z,21.45
2022-10-23T02:24:33.639Z,21.31
2022-10-23T02:27:08.170Z,21.26
2022-10-23T02:29:43.720Z,21.28
2022-10-23T02:32:15.183Z,21.32
2022-10-23T02:34:42.119Z,21.29
2022-10-23T02:37:10.844Z,21.32
2022-10-23T02:39:38.513Z,21.36
2022-10-23T02:42:12.665Z,21.43
2022-10-23T02:45:01.010Z,21.45
2022-10-23T02:47:44.723Z,21.45
2022-10-23T02:50:26.122Z,21.43
2022-10-23T02:53:06.039Z,21.43
2022-10-23T02:55:47.891Z,21.46
2022-10-23T02:58:27.478Z,21.52
2022-10-23T03:01:05.675Z,21.54
2022-10-23T03:03:40.547Z,21.43
2022-10-23T03:06:08.610Z,21.33
2022-10-23T03:08:54.719Z,21.38
2022-10-23T03:11:24.735Z,21.36
2022-10-23T03:13:51.994Z,21.46
2022-10-23T03:16:20.296Z,21.56
2022-10-23T03:19:13.527Z,21.57
2022-10-23T03:21:40.880Z,21.47
2022-10-23T03:24:09.089Z,21.41
2022-10-23T03:26:41.665Z,21.41
2022-10-23T03:29:08.500Z,21.31
2022-10-23T03:31:42.937Z,21.22
2022-10-23T03:34:10.038Z,21.09
2022-10-23T03:36:39.709Z,21.02
2022-10-23T03:39:08.065Z,20.84
2022-10-23T03:42:00.218Z,20.81
2022-10-23T03:44:28.471Z,20.85
2022-10-23T03:46:58.909Z,20.85
2022-10-23T03:49:26.876Z,20.94
2022-10-23T03:51:54.026Z,20.96
2022-10-23T03:54:23.713Z,21.02
2022-10-23T03:56:53.734Z,21.01
2022-10-23T03:59:23.897Z,21.01
2022-10-23T04:02:18.218Z,21.01
2022-10-23T04:04:45.221Z,21.08
2022-10-23T04:07:13.562Z,21.12
2022-10-23T04:09:40.986Z,21.18
2022-10-23T04:12:08.628Z,21.15
2022-10-23T04:14:35.683Z,21.18
2022-10-23T04:17:03.450Z,21.16
2022-10-23T04:19:32.061Z,21.18
2022-10-23T04:21:59.195Z,21.22
2022-10-23T04:24:26.800Z,21.29
2022-10-23T04:26:54.086Z,21.38
2022-10-23T04:29:21.610Z,21.45
2022-10-23T04:31:48.841Z,21.42
2022-10-23T04:34:17.201Z,21.41
2022-10-23T04:36:46.058Z,21.39
2022-10-23T04:39:13.091Z,21.39
2022-10-23T04:41:40.698Z,21.36
2022-10-23T04:44:08.199Z,21.33
2022-10-23T04:46:38.355Z,21.35
2022-10-23T04:49:05.602Z,21.42
2022-10-23T04:51:50.202Z,21.49
2022-10-23T04:54:46.250Z,21.54
2022-10-23T04:57:24.022Z,21.60
2022-10-23T05:00:03.418Z,21.69
2022-10-23T05:02:38.328Z,21.72
2022-10-23T05:05:07.374Z,21.79
2022-10-23T05:07:37.207Z,21.83
2022-10-23T05:10:22.887Z,21.83
2022-10-23T05:12:56.425Z,21.82
2022-10-23T05:15:24.700Z,21.80
2022-10-23T05:17:59.275Z,21.84
2022-10-23T05:20:35.377Z,21.82
2022-10-23T05:23:10.656Z,21.73
2022-10-23T05:25:38.606Z,21.66
2022-10-23T05:28:24.031Z,21.62
2022-10-23T05:30:51.733Z,21.63
2022-10-23T05:33:19.036Z,21.62
2022-10-23T05:35:48.305Z,21.59
2022-10-23T05:38:18.290Z,21.56
2022-10-23T05:40:45.781Z,21.52
2022-10-23T05:43:19.089Z,21.47
2022-10-23T05:46:05.777Z,21.46
2022-10-23T05:48:35.252Z,21.49
2022-10-23T05:51:11.731Z,21.54
2022-10-23T05:53:49.212Z,21.57
2022-10-23T05:56:40.313Z,21.54
2022-10-23T06:02:40.146Z,21.49
2022-10-23T06:05:20.097Z,21.47
2022-10-23T06:07:58.515Z,21.52
2022-10-23T06:10:27.617Z,21.36
2022-10-23T06:12:57.335Z,21.29
2022-10-23T06:15:26.525Z,21.26
2022-10-23T06:18:01.359Z,21.29
2022-10-23T06:20:29.699Z,21.32
2022-10-23T06:23:08.837Z,21.38
2022-10-23T06:26:10.931Z,21.42
2022-10-23T06:28:49.436Z,21.45
2022-10-23T06:31:17.993Z,21.43
2022-10-23T06:33:45.105Z,21.39
2022-10-23T06:36:12.592Z,21.39
2022-10-23T06:38:41.748Z,21.43
2022-10-23T06:41:14.738Z,21.46
2022-10-23T06:43:43.842Z,21.49
2022-10-23T06:46:13.753Z,21.50
2022-10-23T06:49:04.051Z,21.50
2022-10-23T06:51:35.876Z,21.50
2022-10-23T06:54:04.590Z,21.52
2022-10-23T06:56:51.497Z,21.63
2022-10-23T06:59:22.841Z,21.67
2022-10-23T07:01:52.142Z,21.77
2022-10-23T07:04:19.385Z,21.74
2022-10-23T07:06:46.818Z,21.74
2022-10-23T07:09:14.113Z,21.69
2022-10-23T07:12:08.512Z,21.57
2022-10-23T07:14:45.318Z,21.57
2022-10-23T07:17:12.828Z,21.67
2022-10-23T07:19:40.190Z,21.76
2022-10-23T07:22:13.438Z,21.80
2022-10-23T07:24:47.356Z,21.87
2022-10-23T07:27:26.112Z,21.96
2022-10-23T07:29:57.720Z,22.05
2022-10-23T07:32:29.150Z,22.07
2022-10-23T07:35:25.335Z,22.07
2022-10-23T07:37:59.766Z,22.14
2022-10-23T07:40:29.396Z,22.15
2022-10-23T07:42:58.570Z,22.18
2022-10-23T07:45:26.677Z,22.20
2022-10-23T07:47:54.237Z,22.24
2022-10-23T07:50:25.051Z,22.28
2022-10-23T07:52:52.551Z,22.33
2022-10-23T07:55:20.633Z,22.35
2022-10-23T07:57:51.029Z,22.37
2022-10-23T08:00:35.204Z,22.38
2022-10-23T08:03:11.704Z,22.40
2022-10-23T08:05:39.460Z,22.51
2022-10-23T08:08:06.489Z,22.54
2022-10-23T08:10:33.965Z,22.58
2022-10-23T08:13:01.412Z,22.64
2022-10-23T08:15:52.314Z,22.62
2022-10-23T08:18:40.778Z,22.62
2022-10-23T08:21:10.277Z,22.66
2022-10-23T08:23:38.444Z,22.76
2022-10-23T08:26:07.122Z,22.88
2022-10-23T08:28:35.797Z,23.03
2022-10-23T08:31:10.838Z,23.26
2022-10-23T08:33:38.972Z,23.40
2022-10-23T08:36:18.379Z,23.60
2022-10-23T08:38:46.245Z,23.64
2022-10-23T08:41:28.680Z,23.81
2022-10-23T08:44:16.781Z,23.91
2022-10-23T08:46:52.737Z,24.07
2022-10-23T08:49:50.482Z,24.24
2022-10-23T08:52:28.182Z,24.32
2022-10-23T08:55:06.235Z,24.38
2022-10-23T08:57:43.462Z,24.33
2022-10-23T09:00:15.969Z,24.42
2022-10-23T09:02:48.228Z,24.42
2022-10-23T09:05:21.363Z,24.49
2022-10-23T09:08:07.619Z,24.58
2022-10-23T09:10:51.943Z,24.59
2022-10-23T09:13:53.376Z,24.77
2022-10-23T09:16:41.121Z,25.03
2022-10-23T09:19:18.220Z,25.38
2022-10-23T09:21:48.716Z,25.57
2022-10-23T09:24:18.676Z,25.78
2022-10-23T09:26:46.397Z,25.95
2022-10-23T09:29:23.678Z,26.02
2022-10-23T09:31:52.584Z,25.99
2022-10-23T09:34:25.290Z,25.98
2022-10-23T09:36:59.303Z,25.98
2022-10-23T09:39:31.164Z,25.96
2022-10-23T09:41:59.452Z,25.96
2022-10-23T09:44:29.976Z,25.96
2022-10-23T09:47:08.389Z,25.89
2022-10-23T09:49:46.163Z,25.89
2022-10-23T09:52:29.067Z,25.98
2022-10-23T09:54:59.874Z,25.99
2022-10-23T09:57:33.848Z,26.10
2022-10-23T10:00:06.380Z,26.15
2022-10-23T10:02:38.977Z,26.22
2022-10-23T10:05:31.035Z,26.30
2022-10-23T10:08:10.863Z,26.36
2022-10-23T10:10:47.011Z,26.40
2022-10-23T10:13:45.064Z,26.44
2022-10-23T10:16:26.243Z,26.47
2022-10-23T10:19:06.106Z,26.57
2022-10-23T10:21:46.282Z,26.69
2022-10-23T10:24:21.387Z,26.73
2022-10-23T10:27:01.593Z,26.95
2022-10-23T10:29:48.749Z,27.07
2022-10-23T10:32:35.156Z,27.20
2022-10-23T10:35:22.156Z,27.25
2022-10-23T10:38:20.829Z,27.34
2022-10-23T10:41:08.788Z,27.32
2022-10-23T10:43:46.635Z,27.32
2022-10-23T10:46:23.875Z,27.37
2022-10-23T10:49:01.577Z,27.34
2022-10-23T10:51:51.292Z,27.37
2022-10-23T10:54:40.600Z,27.45
2022-10-23T10:57:20.456Z,27.53
2022-10-23T10:59:55.974Z,27.66
2022-10-23T11:02:30.218Z,27.73
2022-10-23T11:05:09.975Z,27.82
2022-10-23T11:07:46.636Z,27.85
2022-10-23T11:10:19.062Z,28.00
2022-10-23T11:12:48.721Z,28.14
2022-10-23T11:15:21.010Z,28.21
2022-10-23T11:17:53.608Z,28.43
2022-10-23T11:20:49.159Z,28.79
2022-10-23T11:23:47.489Z,29.08
2022-10-23T11:26:36.333Z,29.50
2022-10-23T11:29:56.084Z,29.81
2022-10-23T11:32:51.497Z,29.97
2022-10-23T11:35:42.575Z,30.08
2022-10-23T11:38:21.515Z,30.04
2022-10-23T11:40:55.944Z,30.01
2022-10-23T11:43:31.855Z,30.00
2022-10-23T11:45:59.769Z,29.90
2022-10-23T11:48:38.239Z,29.78
2022-10-23T11:51:08.167Z,29.67
2022-10-23T11:53:40.297Z,29.63
2022-10-23T11:56:27.374Z,29.45
2022-10-23T11:58:59.442Z,29.40
2022-10-23T12:01:37.073Z,29.56
2022-10-23T12:04:21.066Z,29.78
2022-10-23T12:06:52.462Z,29.84
2022-10-23T12:09:28.791Z,29.97
2022-10-23T12:12:15.698Z,30.05
2022-10-23T12:14:47.043Z,30.13
2022-10-23T12:17:34.882Z,30.11
2022-10-23T12:20:18.415Z,30.03
2022-10-23T12:22:56.537Z,30.10
2022-10-23T12:25:34.281Z,30.25
2022-10-23T12:28:12.484Z,30.44
2022-10-23T12:30:56.314Z,30.64
2022-10-23T12:33:35.085Z,30.74
2022-10-23T12:36:29.437Z,30.89
2022-10-23T12:41:48.113Z,30.61
2022-10-23T12:44:15.062Z,30.44
2022-10-23T12:46:49.801Z,30.25
2022-10-23T12:49:20.982Z,30.04
2022-10-23T12:51:56.401Z,29.88
2022-10-23T12:54:23.989Z,29.67
2022-10-23T12:56:51.143Z,29.55
2022-10-23T12:59:23.137Z,29.45
2022-10-23T13:01:53.107Z,29.30
2022-10-23T13:04:34.819Z,29.09
2022-10-23T13:07:03.827Z,28.79
2022-10-23T13:09:35.816Z,28.67
2022-10-23T13:12:24.599Z,28.45
2022-10-23T13:15:01.803Z,28.33
2022-10-23T13:17:40.781Z,28.23
2022-10-23T13:20:24.318Z,28.03
2022-10-23T13:23:10.063Z,27.88
2022-10-23T13:25:39.538Z,27.70
2022-10-23T13:28:24.815Z,27.59
2022-10-23T13:31:22.447Z,27.45
2022-10-23T13:34:05.142Z,27.27
2022-10-23T13:36:35.646Z,27.10
2022-10-23T13:39:14.825Z,26.91
2022-10-23T13:41:44.600Z,26.87
2022-10-23T13:44:13.646Z,26.80
2022-10-23T13:46:41.807Z,26.77
2022-10-23T13:49:10.309Z,26.71
2022-10-23T13:51:43.877Z,26.69
2022-10-23T13:54:16.146Z,26.64
2022-10-23T13:56:43.429Z,26.56
2022-10-23T13:59:11.522Z,26.51
2022-10-23T14:01:39.554Z,26.50
2022-10-23T14:04:08.019Z,26.46
2022-10-23T14:06:36.543Z,26.49
2022-10-23T14:09:05.331Z,26.40
2022-10-23T14:11:32.580Z,26.36
2022-10-23T14:14:00.305Z,26.39
2022-10-23T14:16:28.382Z,26.41
2022-10-23T14:18:56.319Z,26.39
2022-10-23T14:21:24.753Z,26.35
2022-10-23T14:23:54.256Z,26.30
2022-10-23T14:26:24.177Z,26.20
2022-10-23T14:28:53.707Z,26.13
2022-10-23T14:31:21.711Z,26.10
2022-10-23T14:33:53.529Z,26.08
2022-10-23T14:36:20.806Z,25.98
2022-10-23T14:38:50.532Z,25.93
2022-10-23T14:41:46.785Z,25.98
2022-10-23T14:44:14.358Z,25.99
2022-10-23T14:46:41.741Z,25.93
2022-10-23T14:49:08.632Z,25.93
2022-10-23T14:51:36.412Z,25.85
2022-10-23T14:54:06.658Z,25.78
2022-10-23T14:56:38.493Z,25.68
2022-10-23T14:59:07.868Z,25.62
2022-10-23T15:01:43.525Z,25.58
2022-10-23T15:04:12.823Z,25.51
2022-10-23T15:06:39.832Z,25.51
2022-10-23T15:09:06.980Z,25.48
2022-10-23T15:11:34.032Z,25.41
2022-10-23T15:14:01.601Z,25.41
2022-10-23T15:16:30.129Z,25.31
2022-10-23T15:18:57.676Z,25.27
2022-10-23T15:21:25.088Z,25.27
2022-10-23T15:23:52.209Z,25.24
2022-10-23T15:26:21.255Z,25.18
2022-10-23T15:28:52.293Z,25.14
2022-10-23T15:31:44.738Z,25.16
2022-10-23T15:34:16.272Z,25.07
2022-10-23T15:36:46.575Z,25.02
2022-10-23T15:39:16.730Z,24.94
2022-10-23T15:41:44.897Z,24.90
2022-10-23T15:44:17.533Z,24.89
2022-10-23T15:46:46.438Z,24.80
2022-10-23T15:49:16.200Z,24.77
2022-10-23T15:51:43.664Z,24.72
2022-10-23T15:54:15.325Z,24.70
2022-10-23T15:56:42.898Z,24.66
2022-10-23T15:59:12.521Z,24.69
2022-10-23T16:01:45.131Z,24.63
2022-10-23T16:04:14.485Z,24.58
2022-10-23T16:06:41.891Z,24.58
2022-10-23T16:09:08.929Z,24.55
2022-10-23T16:11:38.127Z,24.60
2022-10-23T16:14:07.643Z,24.58
2022-10-23T16:16:35.171Z,24.55
2022-10-23T16:19:04.620Z,24.48
2022-10-23T16:21:35.967Z,24.48
2022-10-23T16:24:06.968Z,24.43
2022-10-23T16:26:35.378Z,24.33
2022-10-23T16:29:06.371Z,24.29
2022-10-23T16:31:39.801Z,24.25
2022-10-23T16:34:07.480Z,24.21
2022-10-23T16:36:37.038Z,24.14
2022-10-23T16:39:19.385Z,24.05
2022-10-23T16:42:15.418Z,24.04
2022-10-23T16:45:08.954Z,23.95
2022-10-23T16:47:36.217Z,23.94
2022-10-23T16:50:06.051Z,23.97
2022-10-23T16:52:39.251Z,23.95
2022-10-23T16:55:09.769Z,23.89
2022-10-23T16:57:37.849Z,23.88
2022-10-23T17:00:07.649Z,23.89
2022-10-23T17:02:35.028Z,23.94
2022-10-23T17:05:02.421Z,23.94
2022-10-23T17:07:29.420Z,23.95
2022-10-23T17:09:58.321Z,23.97
2022-10-23T17:12:26.650Z,24.00
2022-10-23T17:14:55.084Z,23.98
2022-10-23T17:17:22.383Z,23.88
2022-10-23T17:19:52.834Z,23.89
2022-10-23T17:22:20.477Z,23.88
2022-10-23T17:24:51.430Z,23.85
2022-10-23T17:27:22.655Z,23.85
2022-10-23T17:29:56.165Z,23.81
2022-10-23T17:32:27.734Z,23.77
2022-10-23T17:34:58.553Z,23.78
2022-10-23T17:37:27.660Z,23.77
2022-10-23T17:39:56.424Z,23.77
2022-10-23T17:42:27.891Z,23.78
2022-10-23T17:44:55.446Z,23.78
2022-10-23T18:04:17.849Z,23.47
2022-10-23T18:06:50.349Z,23.50
2022-10-23T18:09:21.120Z,23.43
2022-10-23T18:11:48.794Z,23.44
2022-10-23T18:14:18.434Z,23.51
2022-10-23T18:16:46.392Z,23.53
2022-10-23T18:19:16.642Z,23.49
2022-10-23T18:21:47.972Z,23.49
2022-10-23T18:24:16.399Z,23.50
2022-10-23T18:26:45.091Z,23.50
2022-10-23T18:29:14.072Z,23.60
2022-10-23T18:31:42.250Z,23.66
2022-10-23T18:34:17.205Z,23.63
2022-10-23T18:36:44.546Z,23.56
2022-10-23T18:39:21.731Z,23.57
2022-10-23T18:41:52.267Z,23.56
2022-10-23T18:44:22.892Z,23.54
2022-10-23T18:46:51.608Z,23.60
2022-10-23T18:49:20.507Z,23.63
2022-10-23T18:51:48.672Z,23.60
2022-10-23T18:54:19.216Z,23.56
2022-10-23T18:56:47.078Z,23.49
2022-10-23T18:59:18.496Z,23.49
2022-10-23T19:01:53.694Z,23.51
2022-10-23T19:04:22.469Z,23.47
2022-10-23T19:06:50.852Z,23.44
2022-10-23T19:09:18.224Z,23.37
2022-10-23T19:11:45.582Z,23.37
2022-10-23T19:14:13.225Z,23.33
2022-10-23T19:16:46.113Z,23.28
2022-10-23T19:19:20.023Z,23.30
2022-10-23T19:21:50.258Z,23.28
2022-10-23T19:24:25.683Z,23.23
2022-10-23T19:26:55.528Z,23.20
2022-10-23T19:29:25.743Z,23.24
2022-10-23T19:31:54.233Z,23.22
2022-10-23T19:34:23.759Z,23.23
2022-10-23T19:36:53.974Z,23.26
2022-10-23T19:39:23.301Z,23.30
2022-10-23T19:41:50.303Z,23.33
2022-10-23T19:44:17.754Z,23.36
2022-10-23T19:46:46.014Z,23.43
2022-10-23T19:49:14.433Z,23.44
2022-10-23T19:51:50.651Z,23.50
2022-10-23T19:54:21.428Z,23.50
2022-10-23T19:56:49.111Z,23.51
2022-10-23T19:59:17.302Z,23.50
2022-10-23T20:01:47.818Z,23.47
2022-10-23T20:04:16.518Z,23.46
2022-10-23T20:06:43.887Z,23.42
2022-10-23T20:09:10.892Z,23.36
2022-10-23T20:11:40.337Z,23.27
2022-10-23T20:14:08.089Z,23.20
2022-10-23T20:16:38.089Z,23.09
2022-10-23T20:19:08.505Z,23.03
2022-10-23T20:21:37.773Z,22.91
2022-10-23T20:24:05.426Z,22.82
2022-10-23T20:26:34.218Z,22.91
2022-10-23T20:29:02.621Z,22.95
2022-10-23T20:31:30.080Z,22.91
2022-10-23T20:33:57.114Z,22.89
2022-10-23T20:36:28.930Z,22.98
2022-10-23T20:38:59.065Z,22.91
2022-10-23T20:41:52.832Z,22.93
2022-10-23T20:44:22.733Z,22.93
2022-10-23T20:46:50.229Z,22.92
2022-10-23T20:49:18.120Z,23.00
2022-10-23T20:51:54.896Z,22.98
2022-10-23T20:54:27.387Z,22.89
2022-10-23T20:56:58.066Z,22.89
2022-10-23T21:02:20.453Z,22.66
2022-10-23T21:04:55.119Z,22.72
2022-10-23T21:07:27.152Z,22.71
2022-10-23T21:09:57.382Z,22.61
2022-10-23T21:12:26.242Z,22.64
2022-10-23T21:14:54.746Z,22.55
2022-10-23T21:17:24.552Z,22.54
2022-10-23T21:19:51.756Z,22.64
2022-10-23T21:22:18.657Z,22.73
2022-10-23T21:24:45.890Z,22.79
2022-10-23T21:27:14.411Z,22.92
2022-10-23T21:29:41.468Z,22.98
2022-10-23T21:32:09.730Z,23.06
2022-10-23T21:34:36.643Z,23.12
2022-10-23T21:37:18.870Z,23.12
2022-10-23T21:39:46.766Z,23.07
2022-10-23T21:42:14.899Z,23.13
2022-10-23T21:44:41.984Z,23.13
2022-10-23T21:47:11.998Z,23.17
2022-10-23T21:49:39.146Z,23.13
2022-10-23T21:52:06.160Z,23.13
2022-10-23T21:54:33.415Z,23.10
2022-10-23T21:57:00.229Z,23.13
2022-10-23T22:02:20.030Z,23.05
2022-10-23T22:04:48.091Z,23.05
2022-10-23T22:07:15.035Z,22.99
2022-10-23T22:09:42.957Z,23.02
2022-10-23T22:12:12.574Z,23.00
2022-10-23T22:14:39.594Z,22.96
2022-10-23T22:17:06.668Z,22.98
2022-10-23T22:19:35.731Z,22.98
2022-10-23T22:22:02.828Z,22.88
2022-10-23T22:24:32.774Z,22.85
2022-10-23T22:26:59.858Z,22.81
2022-10-23T22:29:28.900Z,22.93
2022-10-23T22:31:56.782Z,23.05
2022-10-23T22:37:10.869Z,23.17
2022-10-23T22:39:39.639Z,23.27
2022-10-23T22:42:06.912Z,23.37
2022-10-23T22:44:33.859Z,23.44
2022-10-23T22:47:00.886Z,23.50
2022-10-23T22:49:29.707Z,23.57
2022-10-23T22:51:56.745Z,23.58
2022-10-23T22:54:25.531Z,23.64
2022-10-23T22:56:52.789Z,23.70
2022-10-23T22:59:19.673Z,23.68
2022-10-23T23:01:48.834Z,23.68
2022-10-23T23:04:36.853Z,23.58
2022-10-23T23:07:03.742Z,23.54
2022-10-23T23:09:31.999Z,23.53
2022-10-23T23:11:58.983Z,23.51
2022-10-23T23:14:26.098Z,23.58
2022-10-23T23:16:53.420Z,23.67
2022-10-23T23:19:20.530Z,23.67
2022-10-23T23:21:47.469Z,23.66
2022-10-23T23:24:14.565Z,23.66
2022-10-23T23:26:42.915Z,23.68
2022-10-23T23:29:09.787Z,23.71
2022-10-23T23:31:36.678Z,23.75
2022-10-23T23:34:03.687Z,23.79
2022-10-23T23:36:30.806Z,23.84
2022-10-23T23:38:59.591Z,23.88
2022-10-23T23:41:32.390Z,23.87
2022-10-23T23:44:00.718Z,23.91
2022-10-23T23:46:27.696Z,23.91
2022-10-23T23:48:54.709Z,23.88
2022-10-23T23:51:25.032Z,23.84
2022-10-23T23:53:53.178Z,23.68
2022-10-23T23:56:21.156Z,23.53
2022-10-23T23:58:48.833Z,23.39
